Time;durP1;ratioP1;P1;durP2;ratioP2;P2;SDS_P1;SDS_P2;PMS_P1;PMS_P2;Temp;Humidity;BMP_temperature;BMP_pressure;BME280_temperature;BME280_humidity;BME280_pressure;Samples;Min_cycle;Max_cycle;Signal;HPM_P1;HPM_P2
2021/05/30 00:01:33;;;;;;;6.78;5.63;;;11.50;98.80;;;;;;5091763;28;20293;-39
2021/05/30 00:04:00;;;;;;;5.93;5.35;;;11.40;99.00;;;;;;5092189;28;20305;-39
2021/05/30 00:06:29;;;;;;;6.25;5.65;;;11.40;99.20;;;;;;5091719;28;20649;-39
2021/05/30 00:08:56;;;;;;;5.55;4.95;;;11.30;99.30;;;;;;5091669;28;20636;-40
2021/05/30 00:11:23;;;;;;;5.05;4.65;;;11.30;99.40;;;;;;5091740;28;20223;-39
2021/05/30 00:14:12;;;;;;;4.45;4.03;;;11.20;99.50;;;;;;5091894;28;20229;-42
2021/05/30 00:16:39;;;;;;;5.40;4.90;;;11.20;99.60;;;;;;5092276;28;20724;-39
2021/05/30 00:19:07;;;;;;;5.43;5.00;;;11.10;99.80;;;;;;5091548;28;20206;-39
2021/05/30 00:21:34;;;;;;;6.93;6.22;;;11.00;99.90;;;;;;5094195;28;20217;-40
2021/05/30 00:24:02;;;;;;;5.47;4.97;;;11.10;99.90;;;;;;5095927;28;20215;-39
2021/05/30 00:26:29;;;;;;;5.40;4.90;;;11.00;99.90;;;;;;5095163;28;20203;-39
2021/05/30 00:28:57;;;;;;;7.40;5.32;;;11.00;99.90;;;;;;5095398;28;20626;-39
2021/05/30 00:31:25;;;;;;;6.18;5.05;;;11.00;99.90;;;;;;5095600;28;20313;-39
2021/05/30 00:33:53;;;;;;;5.25;4.75;;;11.00;99.90;;;;;;5095280;28;20572;-39
2021/05/30 00:36:21;;;;;;;6.30;5.13;;;10.90;99.90;;;;;;5095471;28;20297;-40
2021/05/30 00:38:48;;;;;;;5.47;4.97;;;10.90;99.90;;;;;;5095399;28;20202;-39
2021/05/30 00:41:16;;;;;;;5.90;5.30;;;10.90;99.90;;;;;;5095057;28;20249;-41
2021/05/30 00:43:45;;;;;;;5.45;4.88;;;10.90;99.90;;;;;;5095399;28;20253;-42
2021/05/30 00:46:13;;;;;;;4.90;4.50;;;10.80;99.90;;;;;;5095210;28;20728;-39
2021/05/30 00:48:41;;;;;;;5.50;5.00;;;10.80;99.90;;;;;;5095243;28;20215;-39
2021/05/30 00:51:09;;;;;;;5.47;5.05;;;10.80;99.90;;;;;;5094980;28;20203;-40
2021/05/30 00:53:37;;;;;;;6.18;5.38;;;10.80;99.90;;;;;;5094914;28;20211;-40
2021/05/30 00:56:07;;;;;;;5.65;5.15;;;10.70;99.90;;;;;;5094911;28;20349;-43
2021/05/30 00:58:35;;;;;;;6.68;5.32;;;10.70;99.90;;;;;;5095197;28;20540;-40
2021/05/30 01:01:04;;;;;;;6.05;5.18;;;10.70;99.90;;;;;;5095031;28;20206;-40
2021/05/30 01:03:34;;;;;;;6.53;5.68;;;10.70;99.90;;;;;;5094645;28;20202;-40
2021/05/30 01:06:03;;;;;;;5.60;5.10;;;10.70;99.90;;;;;;5094708;28;20297;-39
2021/05/30 01:08:31;;;;;;;5.95;5.45;;;10.70;99.90;;;;;;5094536;28;20621;-40
2021/05/30 01:11:00;;;;;;;5.70;5.20;;;10.70;99.90;;;;;;5094887;28;20301;-41
2021/05/30 01:13:28;;;;;;;6.30;5.55;;;10.60;99.90;;;;;;5094621;28;20237;-39
2021/05/30 01:15:56;;;;;;;6.38;5.80;;;10.60;99.90;;;;;;5094491;28;20748;-39
2021/05/30 01:18:25;;;;;;;10.80;6.47;;;10.60;99.90;;;;;;5094399;28;20207;-40
2021/05/30 01:20:55;;;;;;;8.60;6.28;;;10.50;99.90;;;;;;5094767;28;20601;-39
2021/05/30 01:23:24;;;;;;;6.13;5.50;;;10.60;99.90;;;;;;5094312;28;20242;-39
2021/05/30 01:25:51;;;;;;;6.63;6.03;;;10.60;99.90;;;;;;5094390;28;20246;-41
2021/05/30 01:28:19;;;;;;;8.13;7.32;;;10.60;99.90;;;;;;5094121;28;20209;-40
2021/05/30 01:30:49;;;;;;;6.95;6.22;;;10.50;99.90;;;;;;5094258;28;20628;-39
2021/05/30 01:33:16;;;;;;;7.90;7.07;;;10.50;99.90;;;;;;5093079;28;20257;-39
2021/05/30 01:35:44;;;;;;;7.88;5.68;;;10.50;99.90;;;;;;5094407;28;20305;-39
2021/05/30 01:38:12;;;;;;;6.13;5.63;;;10.40;99.90;;;;;;5094190;28;20301;-39
2021/05/30 01:40:41;;;;;;;5.85;5.28;;;10.40;99.90;;;;;;5094152;28;20301;-40
2021/05/30 01:43:09;;;;;;;6.15;5.55;;;10.30;99.90;;;;;;5094054;28;20297;-39
2021/05/30 01:45:38;;;;;;;6.55;5.93;;;10.30;99.90;;;;;;5094025;28;20217;-39
2021/05/30 01:48:07;;;;;;;6.90;6.15;;;10.20;99.90;;;;;;5093791;28;20206;-40
2021/05/30 01:50:35;;;;;;;6.30;5.80;;;10.30;99.90;;;;;;5094019;28;20246;-38
2021/05/30 01:53:06;;;;;;;6.93;5.65;;;10.20;99.90;;;;;;5093679;28;20237;-39
2021/05/30 01:56:54;;;;;;;6.45;5.85;;;10.20;99.90;;;;;;5093832;28;20249;-39
2021/05/30 01:58:43;;;;;;;7.30;5.68;;;10.20;99.90;;;;;;5093647;28;20256;-39
2021/05/30 02:01:13;;;;;;;6.43;5.82;;;10.10;99.90;;;;;;5093685;28;20245;-40
2021/05/30 02:03:42;;;;;;;5.95;5.25;;;10.10;99.90;;;;;;5093754;28;20281;-40
2021/05/30 02:06:10;;;;;;;5.97;5.47;;;10.10;99.90;;;;;;5093482;28;20301;-40
2021/05/30 02:08:39;;;;;;;6.60;5.65;;;10.10;99.90;;;;;;5093567;28;20230;-39
2021/05/30 02:11:09;;;;;;;6.47;5.72;;;10.10;99.90;;;;;;5093441;28;20297;-39
2021/05/30 02:13:37;;;;;;;6.25;5.65;;;10.10;99.90;;;;;;5093443;28;20321;-39
2021/05/30 02:16:06;;;;;;;8.35;5.75;;;10.10;99.90;;;;;;5093339;28;20693;-41
2021/05/30 02:18:34;;;;;;;6.13;5.63;;;10.10;99.90;;;;;;5093474;28;20218;-39
2021/05/30 02:21:02;;;;;;;6.05;5.55;;;10.00;99.90;;;;;;5093389;28;20747;-38
2021/05/30 02:23:29;;;;;;;6.25;5.68;;;10.00;99.90;;;;;;5093351;28;20203;-40
2021/05/30 02:25:57;;;;;;;7.03;5.75;;;10.00;99.90;;;;;;5093246;28;20213;-39
2021/05/30 02:28:24;;;;;;;7.97;7.22;;;10.00;99.90;;;;;;5092923;28;20211;-39
2021/05/30 02:30:52;;;;;;;6.65;6.05;;;10.00;99.90;;;;;;5092966;28;20246;-39
2021/05/30 02:33:20;;;;;;;6.50;5.95;;;10.00;99.90;;;;;;5092788;28;20728;-37
2021/05/30 02:35:47;;;;;;;6.53;5.90;;;10.00;99.90;;;;;;5092942;28;20260;-40
2021/05/30 02:38:15;;;;;;;6.35;5.32;;;10.00;99.90;;;;;;5093190;28;20613;-41
2021/05/30 02:40:42;;;;;;;6.80;6.15;;;9.90;99.90;;;;;;5093157;28;20220;-39
2021/05/30 02:43:10;;;;;;;6.65;5.95;;;9.90;99.90;;;;;;5092879;28;20213;-40
2021/05/30 02:45:37;;;;;;;6.63;5.90;;;9.90;99.90;;;;;;5092893;28;20301;-38
2021/05/30 02:48:05;;;;;;;6.60;5.90;;;9.90;99.90;;;;;;5092681;28;20704;-38
2021/05/30 02:50:33;;;;;;;8.13;6.60;;;9.90;99.90;;;;;;5092643;28;20207;-39
2021/05/30 02:53:01;;;;;;;6.32;5.40;;;9.80;99.90;;;;;;5092896;28;20321;-39
2021/05/30 02:55:28;;;;;;;6.88;6.28;;;9.80;99.90;;;;;;5092644;28;20301;-39
2021/05/30 02:57:56;;;;;;;6.63;5.93;;;9.80;99.90;;;;;;5092904;28;20210;-39
2021/05/30 03:00:24;;;;;;;6.60;6.00;;;9.70;99.90;;;;;;5092675;28;20645;-40
2021/05/30 03:02:51;;;;;;;6.10;5.50;;;9.70;99.90;;;;;;5092700;28;20203;-39
2021/05/30 03:05:19;;;;;;;9.57;6.32;;;9.60;99.90;;;;;;5092639;28;20242;-39
2021/05/30 03:07:47;;;;;;;7.35;6.10;;;9.60;99.90;;;;;;5092749;28;20213;-39
2021/05/30 03:10:15;;;;;;;7.30;5.90;;;9.60;99.90;;;;;;5092735;28;20336;-39
2021/05/30 03:12:42;;;;;;;6.45;5.93;;;9.60;99.90;;;;;;5092622;28;20226;-39
2021/05/30 03:15:10;;;;;;;6.35;5.75;;;9.60;99.90;;;;;;5092531;28;20207;-39
2021/05/30 03:17:38;;;;;;;6.13;5.53;;;9.60;99.90;;;;;;5092341;28;20257;-39
2021/05/30 03:20:07;;;;;;;7.03;6.10;;;9.60;99.90;;;;;;5092548;28;20238;-39
2021/05/30 03:22:34;;;;;;;6.70;5.50;;;9.60;99.90;;;;;;5092412;28;20249;-40
2021/05/30 03:25:03;;;;;;;6.57;6.00;;;9.60;99.90;;;;;;5092386;28;20289;-39
2021/05/30 03:27:31;;;;;;;6.45;5.85;;;9.60;99.90;;;;;;5092240;28;20560;-39
2021/05/30 03:29:58;;;;;;;6.40;5.80;;;9.60;99.90;;;;;;5092261;28;20268;-40
2021/05/30 03:32:26;;;;;;;7.45;5.75;;;9.60;99.90;;;;;;5092327;28;20245;-39
2021/05/30 03:34:53;;;;;;;6.15;5.60;;;9.60;99.90;;;;;;5092409;28;20594;-39
2021/05/30 03:37:21;;;;;;;6.40;5.85;;;9.60;99.90;;;;;;5092433;28;20627;-39
2021/05/30 03:39:49;;;;;;;8.18;5.65;;;9.60;99.90;;;;;;5092010;28;20684;-42
2021/05/30 03:42:21;;;;;;;7.43;6.78;;;9.60;99.90;;;;;;5092230;28;20218;-39
2021/05/30 03:44:49;;;;;;;6.38;5.78;;;9.70;99.90;;;;;;5092065;28;20211;-40
2021/05/30 03:47:16;;;;;;;6.30;5.80;;;9.70;99.90;;;;;;5092111;28;20308;-39
2021/05/30 03:49:44;;;;;;;6.32;5.82;;;9.70;99.90;;;;;;5092176;28;20286;-39
2021/05/30 03:52:11;;;;;;;6.82;6.25;;;9.80;99.90;;;;;;5092014;28;20301;-39
2021/05/30 03:54:39;;;;;;;6.80;6.20;;;9.80;99.90;;;;;;5092160;28;20305;-40
2021/05/30 03:57:07;;;;;;;7.30;5.82;;;9.80;99.90;;;;;;5095570;28;20294;-39
2021/05/30 03:59:35;;;;;;;6.57;5.95;;;9.80;99.90;;;;;;5095966;28;20642;-39
2021/05/30 04:02:03;;;;;;;6.75;6.22;;;9.80;99.90;;;;;;5095903;28;20740;-39
2021/05/30 04:04:30;;;;;;;6.35;5.75;;;9.80;99.90;;;;;;5095769;28;20202;-39
2021/05/30 04:06:58;;;;;;;7.85;5.82;;;9.80;99.90;;;;;;5095770;28;20245;-39
2021/05/30 04:09:26;;;;;;;6.70;5.75;;;9.90;99.90;;;;;;5095878;28;20210;-41
2021/05/30 04:11:53;;;;;;;6.85;6.15;;;9.90;99.90;;;;;;5095845;28;20206;-39
2021/05/30 04:14:21;;;;;;;7.32;6.57;;;10.00;99.90;;;;;;5095863;28;20367;-41
2021/05/30 04:16:49;;;;;;;7.20;6.53;;;10.10;99.90;;;;;;5095886;28;20257;-39
2021/05/30 04:19:17;;;;;;;5.97;5.45;;;10.20;99.90;;;;;;5095788;28;20218;-39
2021/05/30 04:21:44;;;;;;;7.32;6.43;;;10.30;99.90;;;;;;5095811;28;20213;-39
2021/05/30 04:24:12;;;;;;;6.40;5.80;;;10.40;99.90;;;;;;5095513;28;20261;-39
2021/05/30 04:26:39;;;;;;;8.07;6.32;;;10.40;99.90;;;;;;5095818;28;20242;-40
2021/05/30 04:29:06;;;;;;;6.82;6.28;;;10.50;99.90;;;;;;5096009;28;20306;-40
2021/05/30 04:31:34;;;;;;;6.75;5.90;;;10.60;99.90;;;;;;5095581;28;20284;-40
2021/05/30 04:34:02;;;;;;;6.85;6.22;;;10.70;99.90;;;;;;5095605;28;20226;-40
2021/05/30 04:36:30;;;;;;;6.70;6.10;;;10.80;99.90;;;;;;5095454;28;20297;-40
2021/05/30 04:38:57;;;;;;;7.10;6.40;;;10.90;99.90;;;;;;5095373;28;20628;-40
2021/05/30 04:41:25;;;;;;;6.88;6.28;;;11.00;99.90;;;;;;5095523;28;20205;-40
2021/05/30 04:43:52;;;;;;;7.50;6.80;;;11.00;99.90;;;;;;5095466;28;20368;-40
2021/05/30 04:46:20;;;;;;;7.70;6.40;;;11.10;99.90;;;;;;5095243;28;20621;-40
2021/05/30 04:48:47;;;;;;;7.20;6.57;;;11.20;99.90;;;;;;5095287;28;20207;-41
2021/05/30 04:51:15;;;;;;;6.97;6.28;;;11.30;99.90;;;;;;5095107;28;20637;-40
2021/05/30 04:53:45;;;;;;;7.20;6.60;;;11.50;99.90;;;;;;5094988;28;20784;-42
2021/05/30 04:56:17;;;;;;;7.32;6.63;;;11.70;99.90;;;;;;5095154;28;20294;-39
2021/05/30 04:58:44;;;;;;;6.75;6.15;;;11.90;99.90;;;;;;5095174;28;20242;-40
2021/05/30 05:01:12;;;;;;;6.88;6.25;;;12.00;99.90;;;;;;5094920;28;20236;-40
2021/05/30 05:03:39;;;;;;;6.18;5.68;;;12.20;99.90;;;;;;5095000;28;20209;-39
2021/05/30 05:06:07;;;;;;;9.27;5.95;;;12.30;99.90;;;;;;5094785;28;20218;-39
2021/05/30 05:08:35;;;;;;;7.25;6.15;;;12.50;99.90;;;;;;5093474;28;20570;-40
2021/05/30 05:11:04;;;;;;;7.22;6.38;;;12.60;99.90;;;;;;5094867;28;20321;-40
2021/05/30 05:13:31;;;;;;;6.45;5.95;;;12.80;99.90;;;;;;5094813;28;20668;-41
2021/05/30 05:15:59;;;;;;;7.53;6.82;;;12.90;99.80;;;;;;5095006;28;20604;-41
2021/05/30 05:18:31;;;;;;;6.55;5.97;;;13.00;99.60;;;;;;5094894;28;20222;-40
2021/05/30 05:21:00;;;;;;;9.32;6.75;;;13.10;99.40;;;;;;5094673;28;20329;-40
2021/05/30 05:23:27;;;;;;;7.10;6.50;;;13.20;99.30;;;;;;5094470;28;20203;-41
2021/05/30 05:25:59;;;;;;;7.05;6.35;;;13.30;99.50;;;;;;5095101;28;20297;-40
2021/05/30 05:28:27;;;;;;;7.30;6.63;;;13.30;98.90;;;;;;5094792;28;20293;-40
2021/05/30 05:30:54;;;;;;;6.47;5.93;;;13.40;98.80;;;;;;5094555;28;20206;-41
2021/05/30 05:33:22;;;;;;;9.15;7.05;;;13.40;98.70;;;;;;5094457;28;20317;-40
2021/05/30 05:35:50;;;;;;;6.85;6.20;;;13.50;98.60;;;;;;5094384;28;20289;-40
2021/05/30 05:38:18;;;;;;;6.93;6.30;;;13.60;98.40;;;;;;5094350;28;20302;-41
2021/05/30 05:40:46;;;;;;;7.72;7.03;;;13.60;98.30;;;;;;5094342;28;20217;-41
2021/05/30 05:43:14;;;;;;;8.52;7.25;;;13.70;98.30;;;;;;5094021;28;20290;-42
2021/05/30 05:45:42;;;;;;;7.57;6.43;;;13.80;98.20;;;;;;5094250;28;20565;-41
2021/05/30 05:48:10;;;;;;;8.88;7.03;;;13.80;98.30;;;;;;5094527;28;20290;-40
2021/05/30 05:50:38;;;;;;;7.10;6.55;;;13.90;98.10;;;;;;5094062;28;20210;-40
2021/05/30 05:53:06;;;;;;;7.30;6.70;;;14.00;97.90;;;;;;5093869;28;20270;-40
2021/05/30 05:55:34;;;;;;;7.07;6.47;;;14.10;97.80;;;;;;5094049;28;20297;-40
2021/05/30 05:58:02;;;;;;;6.35;5.63;;;14.10;97.60;;;;;;5093716;28;20290;-40
2021/05/30 06:00:31;;;;;;;7.60;6.90;;;14.30;97.50;;;;;;5093510;28;20206;-40
2021/05/30 06:02:59;;;;;;;7.25;6.60;;;14.40;97.30;;;;;;5093518;28;20306;-40
2021/05/30 06:05:27;;;;;;;7.45;6.72;;;14.50;97.20;;;;;;5093668;28;20314;-40
2021/05/30 06:07:55;;;;;;;6.70;6.10;;;14.50;97.10;;;;;;5094095;28;20234;-40
2021/05/30 06:10:25;;;;;;;8.05;7.30;;;14.50;97.10;;;;;;5093968;28;20283;-41
2021/05/30 06:12:53;;;;;;;6.97;6.38;;;14.60;97.10;;;;;;5093524;28;20633;-43
2021/05/30 06:15:23;;;;;;;7.05;6.35;;;14.60;96.90;;;;;;5094557;28;20700;-41
2021/05/30 06:17:54;;;;;;;7.22;6.38;;;14.70;96.70;;;;;;5095324;28;20249;-41
2021/05/30 06:20:23;;;;;;;6.30;5.80;;;14.80;96.60;;;;;;5094009;28;20632;-41
2021/05/30 06:22:51;;;;;;;6.32;5.68;;;14.80;96.50;;;;;;5093707;28;20210;-40
2021/05/30 06:25:18;;;;;;;6.57;5.97;;;14.90;96.30;;;;;;5094100;28;20621;-41
2021/05/30 06:27:46;;;;;;;6.28;5.78;;;14.90;96.10;;;;;;5094377;28;20234;-40
2021/05/30 06:30:15;;;;;;;6.95;6.30;;;15.00;95.90;;;;;;5093183;28;20207;-41
2021/05/30 06:32:42;;;;;;;7.50;6.75;;;15.10;95.70;;;;;;5093280;28;20234;-42
2021/05/30 06:35:11;;;;;;;8.15;6.68;;;15.10;95.60;;;;;;5093319;28;20321;-43
2021/05/30 06:37:39;;;;;;;7.15;6.43;;;15.10;95.50;;;;;;5094661;28;20249;-42
2021/05/30 06:40:07;;;;;;;8.15;6.95;;;15.20;95.60;;;;;;5092607;28;20206;-41
2021/05/30 06:42:35;;;;;;;6.50;5.72;;;15.20;95.10;;;;;;5092769;28;20681;-40
2021/05/30 06:45:03;;;;;;;8.00;6.25;;;15.20;95.00;;;;;;5092656;28;20676;-39
2021/05/30 06:47:31;;;;;;;7.55;6.82;;;15.20;95.00;;;;;;5092550;28;20290;-39
2021/05/30 06:49:58;;;;;;;6.70;5.95;;;15.20;94.90;;;;;;5092625;28;20325;-40
2021/05/30 06:52:26;;;;;;;8.60;6.05;;;15.30;94.80;;;;;;5092420;28;20301;-40
2021/05/30 06:54:54;;;;;;;7.57;6.35;;;15.30;94.80;;;;;;5092382;28;20762;-40
2021/05/30 06:57:21;;;;;;;7.50;6.80;;;15.40;94.70;;;;;;5092475;28;20301;-39
2021/05/30 06:59:49;;;;;;;7.25;6.43;;;15.50;94.90;;;;;;5092501;28;20245;-39
2021/05/30 07:02:17;;;;;;;7.70;7.00;;;15.60;94.50;;;;;;5092304;28;20289;-40
2021/05/30 07:04:45;;;;;;;8.13;6.85;;;15.60;94.40;;;;;;5092176;28;20625;-40
2021/05/30 07:07:12;;;;;;;8.32;7.25;;;15.60;94.20;;;;;;5092543;28;20213;-39
2021/05/30 07:09:40;;;;;;;6.63;5.97;;;15.60;94.10;;;;;;5092685;28;20581;-41
2021/05/30 07:12:09;;;;;;;7.70;6.93;;;15.70;93.90;;;;;;5092313;28;20206;-40
2021/05/30 07:14:36;;;;;;;9.15;7.72;;;15.80;93.90;;;;;;5092094;28;20227;-40
2021/05/30 07:17:04;;;;;;;9.05;7.63;;;15.80;93.80;;;;;;5092043;28;20679;-40
2021/05/30 07:19:32;;;;;;;9.15;7.72;;;15.90;93.70;;;;;;5091931;28;20303;-41
2021/05/30 07:21:59;;;;;;;12.40;8.20;;;16.00;93.70;;;;;;5092301;28;20380;-38
2021/05/30 07:24:27;;;;;;;8.18;7.38;;;16.00;93.60;;;;;;5092541;28;20209;-40
2021/05/30 07:26:55;;;;;;;9.65;8.65;;;16.10;93.50;;;;;;5092016;28;20301;-41
2021/05/30 07:29:22;;;;;;;8.98;7.20;;;16.10;93.30;;;;;;5092098;28;20614;-40
2021/05/30 07:31:50;;;;;;;9.15;7.53;;;16.20;93.10;;;;;;5092940;28;20210;-40
2021/05/30 07:34:17;;;;;;;9.30;7.70;;;16.30;92.90;;;;;;5092144;28;20673;-40
2021/05/30 07:36:45;;;;;;;7.80;6.63;;;16.30;92.80;;;;;;5092006;28;20214;-40
2021/05/30 07:39:13;;;;;;;7.50;6.65;;;16.40;92.60;;;;;;5091586;28;20681;-38
2021/05/30 07:41:40;;;;;;;9.50;8.60;;;16.50;92.40;;;;;;5092375;28;20203;-40
2021/05/30 07:44:09;;;;;;;8.90;7.78;;;16.50;92.40;;;;;;5092502;28;20247;-39
2021/05/30 07:46:38;;;;;;;7.95;7.25;;;16.50;92.40;;;;;;5092908;28;20232;-40
2021/05/30 07:49:06;;;;;;;7.57;6.95;;;16.50;92.40;;;;;;5095364;28;20260;-40
2021/05/30 07:51:34;;;;;;;7.72;6.88;;;16.60;92.60;;;;;;5092356;28;20249;-40
2021/05/30 07:54:01;;;;;;;7.50;6.60;;;16.70;91.90;;;;;;5092317;28;20305;-39
2021/05/30 07:56:28;;;;;;;7.70;7.00;;;16.90;91.60;;;;;;5092666;28;20207;-38
2021/05/30 07:58:56;;;;;;;7.43;6.72;;;17.00;91.30;;;;;;5091878;28;20206;-39
2021/05/30 08:01:24;;;;;;;9.93;7.45;;;17.10;91.10;;;;;;5092936;28;20203;-38
2021/05/30 08:03:52;;;;;;;7.68;6.13;;;17.00;90.90;;;;;;5092060;28;20199;-38
2021/05/30 08:06:20;;;;;;;7.85;7.07;;;17.00;90.90;;;;;;5092324;28;20211;-42
2021/05/30 08:08:48;;;;;;;6.38;5.78;;;17.20;90.70;;;;;;5092049;28;20613;-39
2021/05/30 08:11:15;;;;;;;8.43;6.60;;;17.40;90.30;;;;;;5091590;28;20202;-43
2021/05/30 08:13:43;;;;;;;7.32;6.60;;;17.40;90.00;;;;;;5091471;28;20286;-40
2021/05/30 08:16:10;;;;;;;6.82;6.15;;;17.40;89.90;;;;;;5091721;28;20234;-41
2021/05/30 08:18:39;;;;;;;7.60;6.47;;;17.40;89.80;;;;;;5091920;28;20301;-41
2021/05/30 08:21:06;;;;;;;8.02;7.25;;;17.40;89.30;;;;;;5091578;28;20279;-42
2021/05/30 08:23:34;;;;;;;7.70;6.65;;;17.50;88.60;;;;;;5091806;28;20237;-41
2021/05/30 08:26:02;;;;;;;7.40;5.80;;;17.60;88.30;;;;;;5091470;28;20202;-41
2021/05/30 08:28:30;;;;;;;6.15;5.65;;;17.50;87.70;;;;;;5091732;28;20629;-40
2021/05/30 08:30:57;;;;;;;5.80;4.55;;;17.50;87.10;;;;;;5091656;28;20253;-42
2021/05/30 08:33:25;;;;;;;6.45;5.80;;;17.60;86.50;;;;;;5091575;28;20203;-40
2021/05/30 08:35:53;;;;;;;4.38;3.97;;;17.70;84.90;;;;;;5091418;28;20361;-39
2021/05/30 08:38:21;;;;;;;5.97;4.18;;;17.90;83.80;;;;;;5091655;28;20211;-39
2021/05/30 08:40:58;;;;;;;4.00;3.50;;;18.10;82.70;;;;;;5091969;28;20229;-38
2021/05/30 08:43:26;;;;;;;5.07;3.72;;;18.10;81.00;;;;;;5095354;28;20305;-39
2021/05/30 08:45:54;;;;;;;6.65;3.17;;;18.20;79.70;;;;;;5097544;28;20298;-39
2021/05/30 08:48:23;;;;;;;3.47;2.90;;;18.20;78.70;;;;;;5096766;28;20206;-39
2021/05/30 08:51:03;;;;;;;4.72;3.33;;;18.40;77.70;;;;;;5095023;28;20297;-39
2021/05/30 08:53:32;;;;;;;3.70;3.40;;;18.50;76.80;;;;;;5095543;28;20294;-39
2021/05/30 08:56:00;;;;;;;4.65;3.38;;;18.60;75.10;;;;;;5094884;28;20317;-41
2021/05/30 08:58:35;;;;;;;3.70;3.40;;;18.80;73.70;;;;;;5095092;28;20245;-41
2021/05/30 09:01:11;;;;;;;3.42;3.10;;;18.90;72.40;;;;;;5094778;28;20206;-41
2021/05/30 09:04:03;;;;;;;4.63;2.90;;;19.10;71.80;;;;;;5095008;28;20214;-46
2021/05/30 09:06:31;;;;;;;3.60;3.20;;;19.30;68.30;;;;;;5095037;28;20593;-42
2021/05/30 09:09:00;;;;;;;3.03;2.72;;;19.50;69.10;;;;;;5094851;28;20256;-41
2021/05/30 09:11:42;;;;;;;3.92;3.30;;;19.60;67.50;;;;;;5094991;28;20240;-40
2021/05/30 09:14:13;;;;;;;3.72;3.28;;;19.50;66.20;;;;;;5094878;28;20207;-40
2021/05/30 09:16:53;;;;;;;5.22;3.20;;;19.20;67.30;;;;;;5094781;28;20242;-40
2021/05/30 09:19:44;;;;;;;3.20;3.00;;;18.80;66.20;;;;;;5094664;28;20257;-41
2021/05/30 09:22:30;;;;;;;4.65;3.28;;;18.20;67.80;;;;;;5095070;28;20668;-40
2021/05/30 09:25:07;;;;;;;8.98;2.95;;;17.80;68.90;;;;;;5095019;28;20640;-42
2021/05/30 09:27:37;;;;;;;4.90;3.03;;;17.70;69.90;;;;;;5094632;28;20206;-43
2021/05/30 09:30:26;;;;;;;3.20;2.90;;;17.90;68.90;;;;;;5094715;28;20230;-41
2021/05/30 09:33:03;;;;;;;3.45;3.13;;;18.10;67.40;;;;;;5095430;28;20245;-39
2021/05/30 09:35:51;;;;;;;5.32;3.83;;;18.30;67.10;;;;;;5094077;28;20269;-39
2021/05/30 09:38:21;;;;;;;4.25;3.45;;;18.50;66.70;;;;;;5094250;28;20245;-39
2021/05/30 09:40:52;;;;;;;4.13;3.72;;;18.70;66.00;;;;;;5093896;28;20602;-41
2021/05/30 09:43:21;;;;;;;3.88;2.97;;;18.80;65.20;;;;;;5094154;28;20290;-41
2021/05/30 09:46:03;;;;;;;3.53;3.22;;;19.00;64.60;;;;;;5094201;28;20293;-39
2021/05/30 09:48:33;;;;;;;4.50;3.45;;;19.20;63.70;;;;;;5093556;28;20253;-40
2021/05/30 09:51:06;;;;;;;3.55;3.00;;;19.40;62.70;;;;;;5093648;28;20289;-40
2021/05/30 09:53:35;;;;;;;3.72;3.22;;;19.70;62.10;;;;;;5092846;28;20242;-41
2021/05/30 09:56:04;;;;;;;4.00;3.22;;;20.00;61.10;;;;;;5093539;28;20606;-40
2021/05/30 09:58:32;;;;;;;2.92;2.72;;;20.10;60.70;;;;;;5093679;28;20294;-40
2021/05/30 10:01:04;;;;;;;5.85;2.92;;;20.30;59.50;;;;;;5093607;28;20294;-40
2021/05/30 10:03:33;;;;;;;3.33;3.00;;;20.30;58.20;;;;;;5093354;28;20210;-40
2021/05/30 10:06:01;;;;;;;4.10;2.97;;;20.00;58.30;;;;;;5093397;28;20228;-41
2021/05/30 10:08:28;;;;;;;5.60;3.63;;;19.70;58.80;;;;;;5093523;28;20221;-41
2021/05/30 10:10:56;;;;;;;3.30;3.10;;;19.30;59.40;;;;;;5093492;28;20214;-41
2021/05/30 10:13:25;;;;;;;4.78;3.58;;;19.00;60.00;;;;;;5093753;28;20278;-45
2021/05/30 10:15:54;;;;;;;4.47;3.45;;;18.70;60.80;;;;;;5093017;28;20258;-40
2021/05/30 10:18:25;;;;;;;3.58;3.28;;;18.40;61.50;;;;;;5093085;28;20684;-42
2021/05/30 10:20:55;;;;;;;3.72;3.42;;;18.20;62.10;;;;;;5093642;28;20320;-40
2021/05/30 10:23:23;;;;;;;3.63;3.33;;;18.10;62.70;;;;;;5093203;28;20238;-39
2021/05/30 10:25:51;;;;;;;4.80;3.67;;;18.20;62.60;;;;;;5093146;28;20618;-40
2021/05/30 10:28:46;;;;;;;3.95;3.60;;;18.30;62.60;;;;;;5093263;28;20210;-40
2021/05/30 10:31:20;;;;;;;8.38;7.57;;;18.50;62.80;;;;;;5093237;28;20662;-41
2021/05/30 10:34:22;;;;;;;5.43;3.75;;;18.80;62.80;;;;;;5093238;28;20569;-40
2021/05/30 10:37:25;;;;;;;4.40;4.00;;;19.20;62.10;;;;;;5093730;28;20454;-40
2021/05/30 10:39:55;;;;;;;3.60;3.30;;;19.50;60.60;;;;;;5093099;28;20349;-39
2021/05/30 10:42:26;;;;;;;4.88;3.67;;;19.70;60.30;;;;;;5092693;28;20687;-42
2021/05/30 10:44:56;;;;;;;5.05;3.33;;;19.90;59.60;;;;;;5092539;28;20214;-40
2021/05/30 10:48:16;;;;;;;3.75;3.17;;;20.30;58.70;;;;;;5092812;28;20293;-41
2021/05/30 10:50:54;;;;;;;3.70;3.30;;;20.60;56.80;;;;;;5093377;28;20256;-41
2021/05/30 10:53:36;;;;;;;4.00;2.85;;;20.50;57.30;;;;;;5092660;28;20340;-43
2021/05/30 10:56:22;;;;;;;3.55;3.20;;;20.50;57.10;;;;;;5093067;28;20226;-40
2021/05/30 10:59:22;;;;;;;3.30;3.00;;;20.70;56.40;;;;;;5092623;28;20207;-40
2021/05/30 11:01:51;;;;;;;3.47;3.17;;;20.70;56.10;;;;;;5093202;28;20218;-40
2021/05/30 11:04:35;;;;;;;3.70;3.33;;;20.60;56.40;;;;;;5092354;28;20210;-41
2021/05/30 11:07:08;;;;;;;5.13;2.42;;;20.40;55.90;;;;;;5092670;28;20624;-40
2021/05/30 11:10:09;;;;;;;2.85;2.65;;;20.10;56.10;;;;;;5092830;28;20305;-39
2021/05/30 11:12:52;;;;;;;3.92;2.88;;;19.70;54.10;;;;;;5092808;28;20297;-41
2021/05/30 11:15:24;;;;;;;2.92;2.63;;;19.20;56.00;;;;;;5092593;28;20262;-40
2021/05/30 11:17:54;;;;;;;3.22;2.40;;;19.00;56.50;;;;;;5093043;28;20293;-40
2021/05/30 11:20:24;;;;;;;3.53;2.30;;;19.00;56.30;;;;;;5092141;28;20329;-40
2021/05/30 11:22:53;;;;;;;3.20;2.30;;;19.20;55.60;;;;;;5092263;28;20285;-40
2021/05/30 11:25:23;;;;;;;3.08;2.63;;;19.40;54.90;;;;;;5093231;28;20213;-40
2021/05/30 11:27:56;;;;;;;5.70;2.97;;;19.60;54.40;;;;;;5092552;28;20209;-40
2021/05/30 11:30:45;;;;;;;2.60;2.38;;;19.70;53.80;;;;;;5092334;28;20213;-41
2021/05/30 11:33:25;;;;;;;3.08;2.78;;;19.70;52.80;;;;;;5092306;28;20246;-40
2021/05/30 11:35:55;;;;;;;3.10;2.75;;;19.60;53.70;;;;;;5092107;28;20226;-41
2021/05/30 11:38:33;;;;;;;3.97;3.58;;;19.40;53.60;;;;;;5092459;28;20238;-40
2021/05/30 11:41:19;;;;;;;3.83;2.70;;;19.30;53.50;;;;;;5092198;28;20222;-40
2021/05/30 11:44:04;;;;;;;3.00;2.80;;;19.30;53.20;;;;;;5091875;28;20751;-40
2021/05/30 11:46:34;;;;;;;3.67;3.38;;;19.40;52.00;;;;;;5092054;28;20525;-40
2021/05/30 11:49:06;;;;;;;2.22;2.03;;;19.50;51.90;;;;;;5092404;28;20210;-40
2021/05/30 11:51:59;;;;;;;4.13;3.67;;;19.60;51.90;;;;;;5092103;28;20206;-40
2021/05/30 11:54:30;;;;;;;4.10;2.83;;;19.80;51.30;;;;;;5092484;28;20471;-40
2021/05/30 11:56:59;;;;;;;2.60;2.40;;;19.90;51.30;;;;;;5092285;28;20230;-40
2021/05/30 11:59:32;;;;;;;2.83;2.63;;;19.90;51.00;;;;;;5091879;28;20207;-40
2021/05/30 12:02:00;;;;;;;3.05;2.78;;;19.70;51.00;;;;;;5092122;28;20656;-43
2021/05/30 12:04:38;;;;;;;3.75;2.78;;;19.30;51.00;;;;;;5091919;28;20211;-40
2021/05/30 12:07:09;;;;;;;5.35;3.30;;;19.10;51.10;;;;;;5092244;28;20602;-41
2021/05/30 12:09:45;;;;;;;3.85;3.13;;;19.00;51.30;;;;;;5093428;28;20234;-42
2021/05/30 12:12:31;;;;;;;13.48;11.40;;;19.20;51.00;;;;;;5091928;28;20297;-42
2021/05/30 12:15:13;;;;;;;4.53;3.42;;;19.60;50.50;;;;;;5091751;28;20252;-40
2021/05/30 12:17:43;;;;;;;4.28;3.88;;;20.00;49.80;;;;;;5094596;28;20297;-41
2021/05/30 12:20:19;;;;;;;3.08;2.63;;;20.40;49.30;;;;;;5096237;28;20233;-41
2021/05/30 12:22:46;;;;;;;3.45;3.10;;;20.80;48.90;;;;;;5096015;28;20210;-44
2021/05/30 12:25:16;;;;;;;5.60;3.30;;;21.10;48.60;;;;;;5095869;28;20210;-40
2021/05/30 12:27:44;;;;;;;6.68;3.80;;;21.30;48.40;;;;;;5095622;28;20310;-43
2021/05/30 12:30:14;;;;;;;5.07;4.32;;;21.30;48.30;;;;;;5095902;28;20245;-41
2021/05/30 12:32:49;;;;;;;3.58;3.28;;;21.10;48.70;;;;;;5095786;28;20302;-41
2021/05/30 12:35:45;;;;;;;7.05;4.35;;;21.00;49.10;;;;;;5095794;28;20265;-43
2021/05/30 12:38:13;;;;;;;3.53;3.22;;;20.80;49.50;;;;;;5095399;28;20207;-41
2021/05/30 12:40:42;;;;;;;3.95;3.58;;;20.70;49.70;;;;;;5095148;28;20692;-41
2021/05/30 12:43:10;;;;;;;6.50;3.78;;;20.70;49.70;;;;;;5095369;28;20559;-41
2021/05/30 12:45:54;;;;;;;3.55;2.85;;;20.70;49.50;;;;;;5095475;28;20290;-40
2021/05/30 12:48:22;;;;;;;3.45;2.92;;;20.70;49.10;;;;;;5095257;28;20581;-40
2021/05/30 12:50:53;;;;;;;3.45;2.92;;;20.60;49.20;;;;;;5095190;28;20680;-40
2021/05/30 12:53:30;;;;;;;3.47;2.83;;;20.50;49.20;;;;;;5095007;28;20264;-40
2021/05/30 12:55:58;;;;;;;3.63;3.33;;;20.50;49.50;;;;;;5095140;28;20313;-41
2021/05/30 12:58:25;;;;;;;3.85;3.00;;;20.60;49.20;;;;;;5095129;28;20573;-40
2021/05/30 13:00:53;;;;;;;2.67;2.40;;;20.70;48.40;;;;;;5095226;28;20272;-40
2021/05/30 13:03:26;;;;;;;3.40;2.70;;;20.90;48.00;;;;;;5095372;28;20235;-40
2021/05/30 13:05:54;;;;;;;2.88;2.42;;;21.10;47.80;;;;;;5095223;28;20369;-40